createdAt,value
2018-02-18T00:02:15.104Z,90.50
2018-02-18T00:04:45.810Z,90.40
2018-02-18T00:07:20.698Z,90.50
2018-02-18T00:09:48.169Z,90.50
2018-02-18T00:12:15.694Z,90.50
2018-02-18T00:17:39.118Z,90.40
2018-02-18T00:20:06.626Z,90.50
2018-02-18T00:22:34.687Z,90.50
2018-02-18T00:25:04.690Z,90.40
2018-02-18T00:27:34.856Z,90.50
2018-02-18T00:30:05.987Z,90.50
2018-02-18T00:32:33.512Z,90.40
2018-02-18T00:35:01.791Z,90.50
2018-02-18T00:37:30.397Z,90.50
2018-02-18T00:39:57.890Z,90.60
2018-02-18T00:42:25.385Z,90.40
2018-02-18T00:44:52.893Z,90.50
2018-02-18T00:47:21.962Z,90.40
2018-02-18T00:49:52.165Z,90.60
2018-02-18T00:52:20.505Z,90.80
2018-02-18T00:54:48.029Z,90.70
2018-02-18T00:57:15.526Z,90.60
2018-02-18T00:59:43.051Z,90.70
2018-02-18T01:02:10.559Z,90.50
2018-02-18T01:04:38.092Z,90.40
2018-02-18T01:07:05.647Z,90.30
2018-02-18T01:09:33.180Z,90.70
2018-02-18T01:12:01.371Z,90.70
2018-02-18T01:14:31.461Z,90.80
2018-02-18T01:16:59.754Z,90.40
2018-02-18T01:19:29.859Z,90.50
2018-02-18T01:21:59.047Z,90.70
2018-02-18T01:24:27.005Z,90.60
2018-02-18T01:26:54.513Z,90.70
2018-02-18T01:29:24.482Z,91.60
2018-02-18T01:31:53.416Z,91.60
2018-02-18T01:34:21.011Z,91.60
2018-02-18T01:36:48.532Z,91.70
2018-02-18T01:39:17.002Z,91.60
2018-02-18T01:41:46.214Z,91.90
2018-02-18T01:44:13.721Z,91.90
2018-02-18T01:46:41.246Z,91.90
2018-02-18T01:49:09.532Z,91.50
2018-02-18T01:51:37.038Z,91.50
2018-02-18T01:54:04.554Z,92.10
2018-02-18T01:56:33.466Z,92.10
2018-02-18T01:59:01.041Z,91.40
2018-02-18T02:01:29.779Z,91.70
2018-02-18T02:03:57.276Z,91.70
2018-02-18T02:06:25.506Z,91.20
2018-02-18T02:08:54.240Z,91.60
2018-02-18T02:11:21.742Z,91.60
2018-02-18T02:13:49.261Z,91.80
2018-02-18T02:16:17.486Z,91.80
2018-02-18T02:18:47.044Z,91.80
2018-02-18T02:21:22.636Z,91.70
2018-02-18T02:23:53.246Z,92.20
2018-02-18T02:26:20.766Z,92.00
2018-02-18T02:28:48.274Z,91.50
2018-02-18T02:31:15.786Z,91.50
2018-02-18T02:33:43.297Z,92.10
2018-02-18T02:36:13.211Z,92.20
2018-02-18T02:38:41.492Z,92.10
2018-02-18T02:41:13.397Z,92.10
2018-02-18T02:43:43.719Z,92.00
2018-02-18T02:46:14.703Z,92.10
2018-02-18T02:48:52.974Z,91.50
2018-02-18T02:51:22.657Z,91.50
2018-02-18T02:53:53.148Z,91.50
2018-02-18T02:56:24.504Z,92.00
2018-02-18T02:58:53.055Z,92.00
2018-02-18T03:01:20.557Z,92.00
2018-02-18T03:03:48.048Z,91.60
2018-02-18T03:06:19.092Z,91.30
2018-02-18T03:08:48.069Z,91.30
2018-02-18T03:11:16.462Z,91.50
2018-02-18T03:13:43.975Z,91.40
2018-02-18T03:16:14.695Z,91.20
2018-02-18T03:18:44.611Z,91.40
2018-02-18T03:21:13.363Z,91.60
2018-02-18T03:23:41.922Z,91.90
2018-02-18T03:26:11.101Z,91.80
2018-02-18T03:28:41.271Z,92.00
2018-02-18T03:31:09.546Z,91.90
2018-02-18T03:33:37.081Z,91.60
2018-02-18T03:36:04.602Z,91.60
2018-02-18T03:38:32.139Z,92.00
2018-02-18T03:41:00.420Z,92.00
2018-02-18T03:43:30.633Z,91.90
2018-02-18T03:46:00.957Z,92.00
2018-02-18T03:48:29.232Z,91.60
2018-02-18T03:50:57.947Z,91.60
2018-02-18T03:53:27.485Z,91.10
2018-02-18T03:55:54.990Z,91.40
2018-02-18T03:58:22.489Z,91.60
2018-02-18T04:00:50.017Z,91.60
2018-02-18T04:03:21.414Z,91.80
2018-02-18T04:05:51.180Z,91.70
2018-02-18T04:08:20.414Z,91.60
2018-02-18T04:10:47.935Z,91.40
2018-02-18T04:13:15.446Z,91.20
2018-02-18T04:15:42.947Z,91.30
2018-02-18T04:18:15.779Z,91.70
2018-02-18T04:20:44.072Z,91.40
2018-02-18T04:23:13.415Z,91.20
2018-02-18T04:25:41.695Z,91.60
2018-02-18T04:28:09.195Z,91.60
2018-02-18T04:30:41.474Z,91.60
2018-02-18T04:33:09.013Z,91.60
2018-02-18T04:35:36.540Z,91.40
2018-02-18T04:38:04.085Z,91.00
2018-02-18T04:40:31.587Z,91.20
2018-02-18T04:42:59.089Z,91.80
2018-02-18T04:45:27.559Z,91.80
2018-02-18T04:47:56.645Z,91.70
2018-02-18T04:50:25.132Z,91.80
2018-02-18T04:52:54.238Z,92.00
2018-02-18T04:55:23.234Z,92.00
2018-02-18T04:57:51.970Z,91.40
2018-02-18T05:00:20.258Z,91.90
2018-02-18T05:02:47.790Z,91.90
2018-02-18T05:05:17.107Z,91.90
2018-02-18T05:07:46.691Z,91.70
2018-02-18T05:10:14.199Z,91.70
2018-02-18T05:12:41.715Z,92.40
2018-02-18T05:15:09.222Z,92.30
2018-02-18T05:17:36.743Z,92.20
2018-02-18T05:20:04.240Z,92.40
2018-02-18T05:22:32.773Z,92.40
2018-02-18T05:25:01.679Z,92.20
2018-02-18T05:27:30.351Z,92.20
2018-02-18T05:29:58.596Z,92.20
2018-02-18T05:32:27.531Z,92.40
2018-02-18T05:34:56.154Z,92.30
2018-02-18T05:37:23.674Z,92.20
2018-02-18T05:39:51.174Z,92.20
2018-02-18T05:42:19.112Z,92.20
2018-02-18T05:44:47.502Z,92.20
2018-02-18T05:47:17.434Z,92.20
2018-02-18T05:49:46.902Z,92.20
2018-02-18T05:52:15.972Z,92.20
2018-02-18T05:54:43.496Z,92.20
2018-02-18T05:57:11.769Z,92.30
2018-02-18T05:59:39.274Z,92.30
2018-02-18T06:02:06.780Z,92.20
2018-02-18T06:04:35.061Z,92.40
2018-02-18T06:07:02.579Z,92.30
2018-02-18T06:09:30.088Z,92.20
2018-02-18T06:11:57.639Z,91.80
2018-02-18T06:14:25.170Z,92.20
2018-02-18T06:16:52.720Z,92.40
2018-02-18T06:19:20.443Z,92.30
2018-02-18T06:21:47.961Z,92.20
2018-02-18T06:24:15.455Z,92.20
2018-02-18T06:26:43.736Z,92.40
2018-02-18T06:29:11.259Z,92.30
2018-02-18T06:31:38.776Z,92.80
2018-02-18T06:34:06.279Z,92.80
2018-02-18T06:36:33.798Z,92.20
2018-02-18T06:39:01.293Z,92.30
2018-02-18T06:41:28.794Z,92.50
2018-02-18T06:43:56.313Z,92.60
2018-02-18T06:46:23.860Z,92.80
2018-02-18T06:48:51.403Z,92.80
2018-02-18T06:51:18.964Z,92.80
2018-02-18T06:53:46.466Z,92.00
2018-02-18T06:56:14.762Z,92.10
2018-02-18T06:58:42.325Z,92.50
2018-02-18T07:01:10.606Z,93.00
2018-02-18T07:03:38.190Z,93.00
2018-02-18T07:06:05.741Z,92.50
2018-02-18T07:08:33.396Z,92.40
2018-02-18T07:11:01.672Z,92.40
2018-02-18T07:13:29.168Z,92.30
2018-02-18T07:15:56.695Z,92.60
2018-02-18T07:18:25.006Z,92.60
2018-02-18T07:20:52.542Z,92.50
2018-02-18T07:23:20.160Z,92.30
2018-02-18T07:25:47.705Z,92.40
2018-02-18T07:28:15.200Z,92.60
2018-02-18T07:30:43.476Z,92.90
2018-02-18T07:33:10.998Z,92.90
2018-02-18T07:35:38.507Z,93.00
2018-02-18T07:38:06.797Z,92.90
2018-02-18T07:40:34.483Z,92.90
2018-02-18T07:43:02.015Z,92.90
2018-02-18T07:45:29.501Z,93.20
2018-02-18T07:47:56.995Z,93.30
2018-02-18T07:50:24.506Z,93.20
2018-02-18T07:52:52.803Z,92.50
2018-02-18T07:55:20.301Z,92.20
2018-02-18T07:57:47.873Z,91.90
2018-02-18T08:00:15.432Z,91.20
2018-02-18T08:02:42.931Z,91.20
2018-02-18T08:05:10.454Z,90.50
2018-02-18T08:07:38.007Z,90.40
2018-02-18T08:10:05.520Z,90.00
2018-02-18T08:12:33.048Z,89.40
2018-02-18T08:15:00.571Z,90.20
2018-02-18T08:17:28.076Z,89.20
2018-02-18T08:19:55.622Z,89.10
2018-02-18T08:22:23.134Z,89.70
2018-02-18T08:24:50.680Z,88.60
2018-02-18T08:27:18.205Z,87.20
2018-02-18T08:29:46.479Z,88.00
2018-02-18T08:32:14.140Z,87.80
2018-02-18T08:34:41.660Z,86.80
2018-02-18T08:37:09.167Z,86.50
2018-02-18T08:39:36.701Z,84.60
2018-02-18T08:42:04.261Z,85.40
2018-02-18T08:44:31.794Z,85.30
2018-02-18T08:46:59.383Z,86.00
2018-02-18T08:49:26.894Z,85.30
2018-02-18T08:51:54.421Z,84.10
2018-02-18T08:54:23.080Z,83.60
2018-02-18T08:56:50.590Z,83.10
2018-02-18T08:59:18.113Z,81.80
2018-02-18T09:01:45.633Z,80.20
2018-02-18T09:04:13.170Z,82.40
2018-02-18T09:06:40.697Z,84.50
2018-02-18T09:09:08.198Z,83.40
2018-02-18T09:11:35.724Z,80.60
2018-02-18T09:14:03.294Z,81.80
2018-02-18T09:16:31.566Z,82.80
2018-02-18T09:18:59.173Z,82.80
2018-02-18T09:21:26.707Z,83.30
2018-02-18T09:23:54.988Z,84.80
2018-02-18T09:26:23.256Z,85.70
2018-02-18T09:28:50.790Z,85.80
2018-02-18T09:31:18.321Z,84.30
2018-02-18T09:33:45.839Z,83.90
2018-02-18T09:36:14.118Z,82.40
2018-02-18T09:38:41.692Z,82.40
2018-02-18T09:41:09.221Z,83.10
2018-02-18T09:43:36.802Z,82.20
2018-02-18T09:46:05.107Z,79.10
2018-02-18T09:48:32.613Z,79.00
2018-02-18T09:51:00.129Z,78.80
2018-02-18T09:53:27.630Z,77.00
2018-02-18T09:55:55.200Z,80.40
2018-02-18T09:58:23.502Z,80.30
2018-02-18T10:00:51.064Z,80.30
2018-02-18T10:03:18.693Z,78.50
2018-02-18T10:05:46.212Z,77.10
2018-02-18T10:08:13.766Z,74.00
2018-02-18T10:10:41.292Z,74.30
2018-02-18T10:13:09.591Z,74.70
2018-02-18T10:15:37.085Z,74.70
2018-02-18T10:18:04.595Z,76.80
2018-02-18T10:20:32.911Z,79.00
2018-02-18T10:23:00.413Z,78.90
2018-02-18T10:25:28.191Z,79.20
2018-02-18T10:27:56.471Z,75.90
2018-02-18T10:30:24.019Z,75.80
2018-02-18T10:32:51.717Z,75.70
2018-02-18T10:35:19.834Z,74.60
2018-02-18T10:37:47.392Z,75.50
2018-02-18T10:40:15.353Z,77.50
2018-02-18T10:42:42.951Z,77.90
2018-02-18T10:45:10.566Z,74.60
2018-02-18T10:47:38.101Z,73.50
2018-02-18T10:50:05.621Z,73.50
2018-02-18T10:52:33.151Z,76.80
2018-02-18T10:55:00.665Z,75.00
2018-02-18T10:57:28.172Z,74.90
2018-02-18T10:59:55.710Z,74.60
2018-02-18T11:02:23.308Z,75.20
2018-02-18T11:04:50.847Z,75.50
2018-02-18T11:07:18.354Z,76.80
2018-02-18T11:09:46.668Z,73.00
2018-02-18T11:12:14.215Z,73.70
2018-02-18T11:14:42.538Z,73.70
2018-02-18T11:17:10.056Z,73.70
2018-02-18T11:19:37.597Z,75.60
2018-02-18T11:22:05.116Z,75.80
2018-02-18T11:24:32.741Z,73.70
2018-02-18T11:27:01.121Z,71.00
2018-02-18T11:29:29.435Z,69.90
2018-02-18T11:31:56.974Z,69.80
2018-02-18T11:34:24.477Z,70.90
2018-02-18T11:36:51.993Z,72.60
2018-02-18T11:39:19.508Z,73.10
2018-02-18T11:41:47.025Z,72.90
2018-02-18T11:44:14.523Z,72.40
2018-02-18T11:46:42.086Z,73.90
2018-02-18T11:49:09.621Z,72.10
2018-02-18T11:51:37.152Z,72.30
2018-02-18T11:54:04.649Z,73.20
2018-02-18T11:56:32.191Z,73.60
2018-02-18T11:59:00.501Z,71.80
2018-02-18T12:01:28.018Z,71.70
2018-02-18T12:03:55.554Z,72.50
2018-02-18T12:06:23.090Z,70.40
2018-02-18T12:08:50.597Z,69.90
2018-02-18T12:11:18.127Z,71.40
2018-02-18T12:13:46.404Z,68.50
2018-02-18T12:16:13.904Z,68.50
2018-02-18T12:18:41.435Z,71.20
2018-02-18T12:21:09.705Z,69.00
2018-02-18T12:23:37.205Z,68.90
2018-02-18T12:26:04.740Z,71.90
2018-02-18T12:28:33.040Z,71.70
2018-02-18T12:31:00.537Z,71.70
2018-02-18T12:33:28.040Z,72.30
2018-02-18T12:36:00.618Z,69.50
2018-02-18T12:38:28.141Z,69.50
2018-02-18T12:40:55.652Z,72.60
2018-02-18T12:43:23.172Z,72.90
2018-02-18T12:45:50.668Z,73.00
2018-02-18T12:48:18.185Z,72.90
2018-02-18T12:50:45.696Z,71.90
2018-02-18T12:53:13.204Z,73.90
2018-02-18T12:55:40.734Z,74.70
2018-02-18T12:58:08.234Z,74.70
2018-02-18T13:00:35.763Z,74.40
2018-02-18T13:03:03.282Z,74.60
2018-02-18T13:05:30.799Z,76.50
2018-02-18T13:07:58.300Z,74.90
2018-02-18T13:10:25.831Z,76.00
2018-02-18T13:12:53.357Z,77.00
2018-02-18T13:15:20.871Z,77.60
2018-02-18T13:17:48.382Z,77.00
2018-02-18T13:20:15.921Z,77.10
2018-02-18T13:22:43.441Z,78.10
2018-02-18T13:25:10.964Z,79.60
2018-02-18T13:27:38.475Z,78.90
2018-02-18T13:30:06.039Z,78.90
2018-02-18T13:32:34.377Z,78.40
2018-02-18T13:35:01.832Z,78.50
2018-02-18T13:37:29.350Z,80.50
2018-02-18T13:39:56.844Z,79.60
2018-02-18T13:42:24.478Z,79.80
2018-02-18T13:44:52.028Z,79.10
2018-02-18T13:47:19.550Z,78.60
2018-02-18T13:49:47.206Z,79.30
2018-02-18T13:52:14.777Z,78.20
2018-02-18T13:54:42.285Z,79.20
2018-02-18T13:57:09.874Z,78.30
2018-02-18T13:59:37.458Z,76.70
2018-02-18T14:02:04.954Z,75.50
2018-02-18T14:04:32.533Z,74.50
2018-02-18T14:07:00.043Z,73.20
2018-02-18T14:09:27.531Z,74.40
2018-02-18T14:11:55.804Z,74.00
2018-02-18T14:14:23.332Z,74.00
2018-02-18T14:16:50.891Z,75.60
2018-02-18T14:19:18.394Z,73.50
2018-02-18T14:21:45.915Z,73.40
2018-02-18T14:24:13.442Z,71.00
2018-02-18T14:26:40.957Z,72.00
2018-02-18T14:29:09.236Z,72.60
2018-02-18T14:31:36.762Z,72.50
2018-02-18T14:34:04.293Z,72.70
2018-02-18T14:36:31.844Z,72.80
2018-02-18T14:38:59.353Z,73.00
2018-02-18T14:41:51.487Z,73.30
2018-02-18T14:44:30.681Z,72.60
2018-02-18T14:47:10.052Z,72.20
2018-02-18T14:49:49.316Z,74.00
2018-02-18T14:52:39.380Z,73.00
2018-02-18T14:55:18.625Z,73.30
2018-02-18T14:57:46.119Z,73.40
2018-02-18T15:00:13.646Z,73.80
2018-02-18T15:02:41.193Z,73.20
2018-02-18T15:05:08.700Z,73.30
2018-02-18T15:07:36.226Z,73.60
2018-02-18T15:10:03.786Z,73.60
2018-02-18T15:12:31.334Z,74.10
2018-02-18T15:14:58.860Z,74.30
2018-02-18T15:17:26.402Z,74.30
2018-02-18T15:19:54.240Z,74.40
2018-02-18T15:22:21.744Z,74.80
2018-02-18T15:24:49.378Z,74.90
2018-02-18T15:27:16.897Z,74.90
2018-02-18T15:29:44.452Z,75.60
2018-02-18T15:32:11.985Z,74.50
2018-02-18T15:34:39.507Z,74.90
2018-02-18T15:37:07.040Z,74.60
2018-02-18T15:39:34.534Z,74.30
2018-02-18T15:42:02.073Z,74.20
2018-02-18T15:44:29.646Z,74.50
2018-02-18T15:46:57.220Z,75.50
2018-02-18T15:49:24.751Z,75.20
2018-02-18T15:51:52.276Z,76.70
2018-02-18T15:54:19.841Z,77.20
2018-02-18T15:56:47.556Z,77.00
2018-02-18T15:59:15.324Z,76.50
2018-02-18T16:01:43.192Z,76.10
2018-02-18T16:04:10.772Z,76.70
2018-02-18T16:06:39.061Z,76.30
2018-02-18T16:09:06.605Z,76.20
2018-02-18T16:11:34.890Z,75.10
2018-02-18T16:16:35.665Z,74.20
2018-02-18T16:19:03.289Z,74.40
2018-02-18T16:21:30.876Z,75.10
2018-02-18T16:23:58.626Z,75.80
2018-02-18T16:26:26.117Z,76.10
2018-02-18T16:28:53.640Z,75.90
2018-02-18T16:31:21.950Z,76.80
2018-02-18T16:33:49.499Z,76.30
2018-02-18T16:36:17.009Z,76.70
2018-02-18T16:38:44.551Z,76.50
2018-02-18T16:41:12.086Z,78.20
2018-02-18T16:43:39.658Z,78.80
2018-02-18T16:46:07.204Z,79.50
2018-02-18T16:48:34.796Z,79.80
2018-02-18T16:51:02.385Z,80.80
2018-02-18T16:53:29.871Z,80.80
2018-02-18T16:55:57.421Z,81.30
2018-02-18T16:58:24.965Z,81.70
2018-02-18T17:00:52.538Z,81.90
2018-02-18T17:03:20.135Z,81.60
2018-02-18T17:05:47.616Z,82.20
2018-02-18T17:08:15.147Z,82.50
2018-02-18T17:10:42.779Z,83.00
2018-02-18T17:13:10.296Z,82.90
2018-02-18T17:15:37.836Z,83.00
2018-02-18T17:18:05.398Z,83.30
2018-02-18T17:20:32.950Z,83.60
2018-02-18T17:23:00.547Z,84.00
2018-02-18T17:25:28.099Z,83.70
2018-02-18T17:27:55.801Z,83.80
2018-02-18T17:30:23.389Z,84.00
2018-02-18T17:32:50.952Z,84.40
2018-02-18T17:35:19.345Z,84.30
2018-02-18T17:37:46.951Z,84.10
2018-02-18T17:40:14.493Z,83.70
2018-02-18T17:42:42.028Z,84.70
2018-02-18T17:45:09.550Z,83.80
2018-02-18T17:47:37.073Z,84.30
2018-02-18T17:50:04.626Z,84.80
2018-02-18T17:52:32.171Z,84.80
2018-02-18T17:54:59.734Z,85.40
2018-02-18T17:57:27.293Z,85.30
2018-02-18T17:59:54.974Z,85.50
2018-02-18T18:02:22.569Z,86.10
2018-02-18T18:04:50.073Z,86.30
2018-02-18T18:07:18.379Z,86.70
2018-02-18T18:09:45.909Z,86.70
2018-02-18T18:12:14.188Z,87.20
2018-02-18T18:14:41.783Z,87.10
2018-02-18T18:17:09.348Z,87.20
2018-02-18T18:19:36.902Z,86.50
2018-02-18T18:22:04.480Z,86.70
2018-02-18T18:24:32.006Z,86.80
2018-02-18T18:26:59.538Z,87.00
2018-02-18T18:29:27.095Z,87.00
2018-02-18T18:31:55.419Z,87.50
2018-02-18T18:34:22.943Z,87.30
2018-02-18T18:36:50.501Z,87.70
2018-02-18T18:39:18.773Z,87.50
2018-02-18T18:41:46.328Z,87.50
2018-02-18T18:44:13.873Z,87.50
2018-02-18T18:46:41.384Z,87.70
2018-02-18T18:49:08.892Z,87.50
2018-02-18T18:51:36.438Z,87.50
2018-02-18T18:54:03.952Z,87.10
2018-02-18T18:56:32.240Z,88.40
2018-02-18T18:58:59.783Z,87.60
2018-02-18T19:01:29.059Z,87.00
2018-02-18T19:03:56.561Z,87.00
2018-02-18T19:06:24.220Z,87.10
2018-02-18T19:08:52.648Z,87.70
2018-02-18T19:11:20.171Z,87.60
2018-02-18T19:13:47.660Z,87.70
2018-02-18T19:16:15.202Z,87.60
2018-02-18T19:18:43.492Z,88.10
2018-02-18T19:21:12.340Z,88.50
2018-02-18T19:23:43.388Z,88.70
2018-02-18T19:26:10.970Z,88.60
2018-02-18T19:28:38.776Z,88.40
2018-02-18T19:31:06.321Z,88.20
2018-02-18T19:33:33.872Z,88.00
2018-02-18T19:36:01.381Z,87.70
2018-02-18T19:38:29.676Z,88.90
2018-02-18T19:40:57.250Z,88.10
2018-02-18T19:43:25.640Z,88.80
2018-02-18T19:45:53.300Z,88.60
2018-02-18T19:48:20.838Z,88.30
2018-02-18T19:50:49.113Z,89.00
2018-02-18T19:53:16.779Z,89.00
2018-02-18T19:55:44.385Z,88.80
2018-02-18T19:58:12.072Z,88.60
2018-02-18T20:00:39.817Z,88.70
2018-02-18T20:03:08.522Z,89.20
2018-02-18T20:05:36.421Z,89.20
2018-02-18T20:08:04.385Z,89.10
2018-02-18T20:10:32.031Z,88.70
2018-02-18T20:12:59.717Z,89.10
2018-02-18T20:15:28.109Z,88.70
2018-02-18T20:17:57.473Z,89.10
2018-02-18T20:20:25.199Z,89.00
2018-02-18T20:22:52.764Z,89.60
2018-02-18T20:25:20.369Z,89.40
2018-02-18T20:27:47.976Z,89.00
2018-02-18T20:30:15.506Z,89.90
2018-02-18T20:32:43.069Z,89.40
2018-02-18T20:35:11.380Z,89.60
2018-02-18T20:37:38.971Z,89.60
2018-02-18T20:40:06.662Z,89.90
2018-02-18T20:42:34.192Z,89.50
2018-02-18T20:45:01.717Z,89.30
2018-02-18T20:47:29.285Z,89.80
2018-02-18T20:49:56.889Z,89.40
2018-02-18T20:52:24.477Z,89.60
2018-02-18T20:54:52.025Z,89.90
2018-02-18T20:57:19.531Z,89.70
2018-02-18T20:59:47.058Z,90.00
2018-02-18T21:02:15.398Z,90.10
2018-02-18T21:04:43.706Z,90.20
2018-02-18T21:07:11.276Z,89.70
2018-02-18T21:09:39.571Z,90.00
2018-02-18T21:12:07.843Z,90.00
2018-02-18T21:14:35.457Z,90.00
2018-02-18T21:17:03.012Z,90.20
2018-02-18T21:19:30.596Z,90.20
2018-02-18T21:21:58.113Z,90.10
2018-02-18T21:24:25.622Z,90.20
2018-02-18T21:26:53.159Z,90.30
2018-02-18T21:29:20.691Z,90.60
2018-02-18T21:31:48.236Z,90.40
2018-02-18T21:34:16.525Z,90.40
2018-02-18T21:36:44.083Z,90.40
2018-02-18T21:39:11.590Z,90.40
2018-02-18T21:41:39.090Z,90.10
2018-02-18T21:44:07.402Z,90.40
2018-02-18T21:46:34.892Z,90.30
2018-02-18T21:49:02.494Z,90.50
2018-02-18T21:51:30.054Z,90.20
2018-02-18T21:53:58.337Z,90.10
2018-02-18T21:56:25.908Z,90.10
2018-02-18T21:58:53.430Z,90.20
2018-02-18T22:01:20.994Z,90.40
2018-02-18T22:03:48.682Z,90.50
2018-02-18T22:06:16.221Z,90.40
2018-02-18T22:08:43.773Z,90.50
2018-02-18T22:11:11.287Z,90.60
2018-02-18T22:13:38.817Z,90.30
2018-02-18T22:16:06.303Z,90.60
2018-02-18T22:18:33.844Z,90.50
2018-02-18T22:21:01.366Z,90.50
2018-02-18T22:23:28.906Z,90.50
2018-02-18T22:25:56.460Z,90.30
2018-02-18T22:28:23.976Z,90.30
2018-02-18T22:30:51.478Z,90.50
2018-02-18T22:33:18.969Z,90.50
2018-02-18T22:35:46.510Z,90.20
2018-02-18T22:38:14.023Z,90.50
2018-02-18T22:40:41.689Z,90.50
2018-02-18T22:43:09.263Z,90.60
2018-02-18T22:45:36.807Z,90.60
2018-02-18T22:48:04.396Z,90.50
2018-02-18T22:50:31.916Z,90.40
2018-02-18T22:53:00.174Z,90.30
2018-02-18T22:55:27.700Z,90.20
2018-02-18T22:57:55.223Z,90.60
2018-02-18T23:00:23.561Z,90.40
2018-02-18T23:02:51.071Z,90.40
2018-02-18T23:05:24.136Z,90.30
2018-02-18T23:07:51.764Z,90.60
2018-02-18T23:10:19.277Z,90.30
2018-02-18T23:12:47.557Z,90.60
2018-02-18T23:15:15.824Z,90.70
2018-02-18T23:17:43.341Z,90.70
2018-02-18T23:20:10.856Z,90.90
2018-02-18T23:22:39.187Z,90.60
2018-02-18T23:25:06.713Z,90.60
2018-02-18T23:27:34.233Z,90.60
2018-02-18T23:30:02.505Z,90.60
2018-02-18T23:32:30.010Z,90.60
2018-02-18T23:34:58.279Z,90.90
2018-02-18T23:37:25.830Z,90.90
2018-02-18T23:39:53.353Z,90.60
2018-02-18T23:42:20.972Z,90.60
2018-02-18T23:44:48.530Z,90.60
2018-02-18T23:47:16.042Z,90.80
2018-02-18T23:49:43.561Z,91.10
2018-02-18T23:52:11.086Z,91.10
2018-02-18T23:57:12.535Z,91.30
2018-02-18T23:59:40.041Z,91.20
